Time;durP1;ratioP1;P1;durP2;ratioP2;P2;SDS_P1;SDS_P2;PMS_P1;PMS_P2;Temp;Humidity;BMP_temperature;BMP_pressure;BME280_temperature;BME280_humidity;BME280_pressure;Samples;Min_cycle;Max_cycle;Signal;HPM_P1;HPM_P2
2023/08/03 00:00:33;;;;;;;6.95;1.63;;;15.80;99.90;;;;;;4965346;28;20046;-44
2023/08/03 00:02:59;;;;;;;7.85;2.10;;;15.80;99.90;;;;;;4965675;28;20059;-44
2023/08/03 00:05:25;;;;;;;5.53;1.70;;;15.90;99.90;;;;;;4965985;28;20505;-44
2023/08/03 00:07:51;;;;;;;6.45;2.13;;;15.80;99.90;;;;;;4965625;28;20051;-44
2023/08/03 00:10:18;;;;;;;7.30;1.92;;;15.90;99.90;;;;;;4966342;28;20774;-44
2023/08/03 00:12:45;;;;;;;6.45;2.15;;;15.80;99.90;;;;;;4966507;28;20046;-44
2023/08/03 00:15:12;;;;;;;7.45;1.70;;;15.80;99.90;;;;;;4966553;28;20046;-44
2023/08/03 00:17:38;;;;;;;6.43;1.92;;;15.90;99.90;;;;;;4965196;28;20105;-44
2023/08/03 00:20:06;;;;;;;5.03;1.90;;;15.90;99.90;;;;;;4966060;28;20402;-44
2023/08/03 00:22:32;;;;;;;9.90;1.95;;;16.00;99.90;;;;;;4965736;28;20051;-44
2023/08/03 00:24:58;;;;;;;6.00;1.98;;;15.90;99.90;;;;;;4948050;28;20046;-44
2023/08/03 00:27:24;;;;;;;5.82;1.90;;;15.90;99.90;;;;;;4965393;28;20571;-44
2023/08/03 00:29:50;;;;;;;8.07;1.90;;;15.90;99.90;;;;;;4965803;28;20055;-45
2023/08/03 00:32:16;;;;;;;4.30;1.88;;;16.00;99.90;;;;;;4964995;28;20054;-44
2023/08/03 00:34:41;;;;;;;6.07;2.08;;;15.80;99.90;;;;;;4964374;28;20066;-44
2023/08/03 00:37:07;;;;;;;6.70;2.03;;;15.80;99.90;;;;;;4965693;28;20035;-44
2023/08/03 00:39:32;;;;;;;6.60;2.10;;;15.90;99.90;;;;;;4964687;28;20054;-44
2023/08/03 00:41:58;;;;;;;5.10;2.08;;;15.80;99.90;;;;;;4965039;28;20357;-44
2023/08/03 00:44:24;;;;;;;6.72;1.90;;;15.80;99.90;;;;;;4965759;28;20085;-44
2023/08/03 00:46:50;;;;;;;4.22;1.98;;;15.70;99.90;;;;;;4964764;28;20038;-44
2023/08/03 00:49:16;;;;;;;8.35;2.47;;;15.70;99.90;;;;;;4964928;28;20399;-42
2023/08/03 00:51:42;;;;;;;6.50;2.05;;;15.60;99.90;;;;;;4965926;28;20050;-42
2023/08/03 00:54:07;;;;;;;7.32;2.30;;;15.70;99.90;;;;;;4965394;28;20053;-43
2023/08/03 00:56:34;;;;;;;8.65;2.40;;;15.80;99.90;;;;;;4965136;28;20632;-42
2023/08/03 00:59:01;;;;;;;6.65;2.00;;;15.80;99.90;;;;;;4964798;28;20426;-43
2023/08/03 01:01:26;;;;;;;5.30;1.98;;;15.80;99.90;;;;;;4963504;28;20043;-43
2023/08/03 01:03:54;;;;;;;6.75;2.60;;;15.70;99.90;;;;;;4964484;28;20422;-42
2023/08/03 01:06:20;;;;;;;5.85;1.90;;;15.80;99.90;;;;;;4964475;28;20058;-43
2023/08/03 01:08:46;;;;;;;8.35;2.10;;;15.90;99.90;;;;;;4964842;28;20050;-43
2023/08/03 01:11:11;;;;;;;7.78;2.13;;;15.70;99.90;;;;;;5043624;23;20201;-42
2023/08/03 01:13:37;;;;;;;4.75;1.75;;;15.70;99.90;;;;;;4975610;28;20061;-42
2023/08/03 01:16:03;;;;;;;7.40;2.05;;;15.80;99.90;;;;;;4967398;28;20039;-42
2023/08/03 01:18:29;;;;;;;6.40;2.00;;;15.80;99.90;;;;;;4965820;28;20042;-42
2023/08/03 01:20:55;;;;;;;10.05;2.00;;;15.80;99.90;;;;;;4964465;28;20078;-42
2023/08/03 01:23:21;;;;;;;4.30;1.88;;;15.70;99.90;;;;;;4964297;28;20039;-42
2023/08/03 01:25:47;;;;;;;9.30;2.20;;;15.90;99.90;;;;;;4964959;28;20552;-43
2023/08/03 01:28:12;;;;;;;8.68;2.20;;;15.90;99.90;;;;;;4965008;28;20114;-42
2023/08/03 01:30:38;;;;;;;9.15;2.30;;;15.90;99.90;;;;;;4963924;28;20389;-42
2023/08/03 01:33:04;;;;;;;6.53;2.33;;;15.80;99.90;;;;;;4963919;28;20418;-44
2023/08/03 01:35:29;;;;;;;8.13;2.33;;;15.80;99.90;;;;;;4964663;28;20062;-42
2023/08/03 01:37:55;;;;;;;9.77;2.63;;;15.90;99.90;;;;;;4963724;28;20043;-42
2023/08/03 01:40:20;;;;;;;7.63;2.20;;;15.80;99.90;;;;;;4970375;28;20407;-44
2023/08/03 01:42:46;;;;;;;6.95;2.00;;;16.00;99.90;;;;;;4984419;28;20042;-43
2023/08/03 01:45:12;;;;;;;4.82;2.00;;;15.80;99.90;;;;;;4984557;28;20101;-42
2023/08/03 01:47:37;;;;;;;8.98;2.65;;;15.80;99.90;;;;;;4982457;28;20412;-44
2023/08/03 01:50:03;;;;;;;8.63;2.45;;;15.80;99.90;;;;;;4980607;28;20177;-42
2023/08/03 01:52:29;;;;;;;7.25;2.65;;;15.70;99.90;;;;;;4976138;28;20429;-42
2023/08/03 01:54:54;;;;;;;5.00;2.20;;;15.90;99.90;;;;;;4963901;28;20061;-44
2023/08/03 01:57:20;;;;;;;8.07;2.33;;;15.70;99.90;;;;;;4964180;28;20069;-42
2023/08/03 01:59:46;;;;;;;5.75;2.20;;;15.70;99.90;;;;;;4964588;28;20449;-42
2023/08/03 02:02:12;;;;;;;6.95;2.28;;;15.70;99.90;;;;;;4966166;28;20416;-42
2023/08/03 02:04:39;;;;;;;5.30;1.65;;;15.90;99.90;;;;;;4963739;28;20042;-42
2023/08/03 02:07:15;;;;;;;4.60;1.90;;;15.90;99.90;;;;;;4964261;28;20093;-42
2023/08/03 02:09:41;;;;;;;6.10;1.77;;;15.70;99.90;;;;;;4963074;28;20425;-43
2023/08/03 02:12:07;;;;;;;6.03;1.67;;;15.90;99.90;;;;;;4963788;28;20102;-42
2023/08/03 02:14:33;;;;;;;4.35;1.65;;;15.90;99.90;;;;;;4964107;28;20249;-42
2023/08/03 02:16:59;;;;;;;4.80;1.30;;;15.80;99.90;;;;;;4962992;28;20097;-43
2023/08/03 02:19:25;;;;;;;4.18;1.67;;;15.80;99.90;;;;;;4963710;28;20072;-43
2023/08/03 02:21:50;;;;;;;5.38;1.38;;;15.90;99.90;;;;;;4964152;28;20071;-42
2023/08/03 02:24:16;;;;;;;4.00;1.30;;;15.70;99.90;;;;;;4964470;28;20275;-43
2023/08/03 02:26:41;;;;;;;3.55;1.40;;;15.80;99.90;;;;;;4968687;28;20034;-43
2023/08/03 02:29:07;;;;;;;4.60;1.27;;;15.80;99.90;;;;;;4983201;28;20403;-42
2023/08/03 02:31:33;;;;;;;2.65;1.30;;;15.90;99.90;;;;;;4982669;28;20057;-42
2023/08/03 02:33:58;;;;;;;4.25;1.52;;;15.80;99.90;;;;;;4983436;28;20042;-43
2023/08/03 02:36:24;;;;;;;3.88;1.60;;;15.80;99.90;;;;;;4983001;28;20672;-42
2023/08/03 02:38:49;;;;;;;1.65;1.30;;;15.80;99.90;;;;;;4983356;28;20069;-42
2023/08/03 02:41:15;;;;;;;2.83;1.40;;;15.80;99.90;;;;;;4983659;28;20046;-42
2023/08/03 02:43:41;;;;;;;4.57;1.65;;;15.70;99.90;;;;;;4983205;28;20155;-43
2023/08/03 02:46:07;;;;;;;3.80;1.60;;;15.70;99.90;;;;;;4983058;28;20105;-42
2023/08/03 02:48:32;;;;;;;3.22;1.67;;;15.70;99.90;;;;;;4982667;28;20397;-43
2023/08/03 02:50:58;;;;;;;4.70;1.70;;;15.70;99.90;;;;;;4985986;28;20113;-42
2023/08/03 02:53:24;;;;;;;4.22;1.60;;;15.80;99.90;;;;;;4986569;28;20237;-42
2023/08/03 02:55:51;;;;;;;4.85;1.77;;;15.70;99.90;;;;;;4986869;28;20282;-43
2023/08/03 02:58:16;;;;;;;3.53;1.80;;;15.80;99.90;;;;;;4987283;28;20097;-42
2023/08/03 03:00:42;;;;;;;4.53;1.88;;;15.70;99.90;;;;;;4986045;28;20109;-42
2023/08/03 03:03:08;;;;;;;5.03;1.90;;;15.70;99.90;;;;;;4985807;28;20042;-42
2023/08/03 03:05:33;;;;;;;4.13;1.90;;;15.70;99.90;;;;;;4987250;28;20407;-43
2023/08/03 03:07:59;;;;;;;5.10;2.10;;;15.60;99.90;;;;;;4986490;28;20252;-43
2023/08/03 03:10:25;;;;;;;5.35;2.22;;;15.60;99.90;;;;;;4986105;28;20101;-43
2023/08/03 03:12:50;;;;;;;3.10;1.95;;;15.70;99.90;;;;;;4986750;28;20551;-43
2023/08/03 03:15:16;;;;;;;4.72;2.28;;;15.90;99.90;;;;;;4987158;28;20294;-42
2023/08/03 03:17:42;;;;;;;3.28;2.20;;;15.60;99.90;;;;;;4985104;28;20038;-43
2023/08/03 03:20:09;;;;;;;4.97;2.33;;;15.60;99.90;;;;;;4986704;28;20047;-44
2023/08/03 03:22:35;;;;;;;3.90;2.20;;;15.70;99.90;;;;;;4986698;28;20108;-43
2023/08/03 03:25:02;;;;;;;3.15;2.10;;;15.70;99.90;;;;;;4986251;28;20042;-51
2023/08/03 03:27:28;;;;;;;3.25;2.20;;;15.70;99.90;;;;;;4986287;28;20049;-43
2023/08/03 03:29:55;;;;;;;4.55;2.08;;;15.70;99.90;;;;;;4986457;28;20051;-43
2023/08/03 03:32:20;;;;;;;4.10;2.80;;;15.70;99.90;;;;;;4986310;28;20099;-43
2023/08/03 03:34:46;;;;;;;3.22;2.58;;;15.80;99.90;;;;;;4986128;28;20073;-42
2023/08/03 03:37:12;;;;;;;4.60;2.53;;;15.80;99.90;;;;;;4986260;28;20133;-43
2023/08/03 03:39:37;;;;;;;6.80;2.95;;;15.70;99.90;;;;;;4986165;28;20057;-42
2023/08/03 03:42:03;;;;;;;4.40;3.33;;;15.60;99.90;;;;;;4984042;28;20464;-42
2023/08/03 03:44:28;;;;;;;4.80;3.60;;;15.70;99.90;;;;;;4984725;28;20409;-44
2023/08/03 03:46:54;;;;;;;4.40;3.88;;;15.70;99.90;;;;;;4985541;28;20042;-42
2023/08/03 03:49:20;;;;;;;5.00;3.72;;;16.00;99.90;;;;;;4985127;28;20057;-43
2023/08/03 03:51:45;;;;;;;5.32;3.30;;;15.70;99.90;;;;;;4985386;28;20042;-43
2023/08/03 03:54:11;;;;;;;4.68;3.25;;;15.70;99.90;;;;;;4986224;28;20061;-43
2023/08/03 03:56:37;;;;;;;5.05;3.30;;;15.80;99.90;;;;;;4985970;28;20572;-42
2023/08/03 03:59:02;;;;;;;6.03;3.40;;;15.80;99.90;;;;;;4985018;28;20042;-42
2023/08/03 04:01:28;;;;;;;4.88;3.60;;;15.80;99.90;;;;;;4983263;28;20046;-42
2023/08/03 04:03:53;;;;;;;4.80;3.53;;;15.80;99.90;;;;;;4985694;28;20085;-42
2023/08/03 04:06:19;;;;;;;5.50;4.00;;;15.80;99.90;;;;;;4986071;28;20400;-43
2023/08/03 04:08:45;;;;;;;11.80;6.30;;;15.70;99.90;;;;;;4984943;28;20635;-43
2023/08/03 04:11:10;;;;;;;9.30;6.93;;;15.70;99.90;;;;;;4972041;28;20053;-42
2023/08/03 04:13:36;;;;;;;10.80;7.43;;;15.80;99.90;;;;;;4965856;28;20290;-44
2023/08/03 04:16:01;;;;;;;13.52;9.73;;;15.80;99.90;;;;;;4963809;28;20174;-44
2023/08/03 04:18:30;;;;;;;15.95;11.38;;;15.80;99.90;;;;;;4966134;28;20069;-42
2023/08/03 04:20:55;;;;;;;16.80;11.18;;;15.80;99.90;;;;;;4965554;28;20054;-42
2023/08/03 04:23:21;;;;;;;16.23;11.60;;;15.80;99.90;;;;;;4965966;28;20042;-44
2023/08/03 04:25:46;;;;;;;15.15;9.77;;;15.80;99.90;;;;;;4965698;28;20183;-42
2023/08/03 04:28:12;;;;;;;14.57;9.90;;;15.80;99.90;;;;;;4965542;28;20049;-42
2023/08/03 04:30:38;;;;;;;13.75;9.80;;;15.80;99.90;;;;;;4965616;28;20054;-43
2023/08/03 04:33:03;;;;;;;12.63;9.73;;;15.80;99.90;;;;;;4964740;28;20050;-42
2023/08/03 04:35:29;;;;;;;19.92;10.18;;;15.90;99.90;;;;;;4965502;28;20525;-43
2023/08/03 04:37:54;;;;;;;19.52;11.63;;;15.90;99.90;;;;;;4965838;28;20061;-43
2023/08/03 04:40:20;;;;;;;19.00;11.10;;;15.80;99.90;;;;;;4966046;28;20401;-43
2023/08/03 04:42:45;;;;;;;21.55;12.32;;;15.80;99.90;;;;;;4965915;28;20124;-42
2023/08/03 04:45:11;;;;;;;16.55;10.13;;;15.80;99.90;;;;;;4963900;28;20082;-42
2023/08/03 04:47:38;;;;;;;16.83;10.05;;;15.80;99.90;;;;;;4965018;28;20046;-44
2023/08/03 04:50:04;;;;;;;19.20;9.57;;;15.90;99.90;;;;;;4964800;28;20085;-42
2023/08/03 04:52:29;;;;;;;13.88;8.60;;;16.00;99.90;;;;;;4965359;28;20050;-43
2023/08/03 04:54:55;;;;;;;11.00;7.35;;;16.00;99.90;;;;;;4965496;28;20035;-45
2023/08/03 04:57:21;;;;;;;10.13;7.70;;;16.00;99.90;;;;;;4965043;28;20045;-43
2023/08/03 04:59:46;;;;;;;11.75;7.25;;;15.90;99.90;;;;;;4965078;28;20034;-43
2023/08/03 05:02:12;;;;;;;12.07;7.80;;;16.00;99.90;;;;;;4964819;28;20090;-43
2023/08/03 05:04:37;;;;;;;13.98;8.15;;;16.00;99.90;;;;;;4964288;28;20039;-42
2023/08/03 05:07:03;;;;;;;12.55;8.25;;;16.00;99.90;;;;;;4964862;28;20051;-42
2023/08/03 05:09:29;;;;;;;10.77;8.05;;;15.90;99.90;;;;;;4964864;28;20050;-43
2023/08/03 05:11:54;;;;;;;14.50;9.18;;;15.90;99.90;;;;;;4965485;28;20124;-42
2023/08/03 05:14:20;;;;;;;16.08;8.20;;;15.90;99.90;;;;;;4964551;28;20042;-42
2023/08/03 05:16:46;;;;;;;15.88;9.05;;;16.00;99.90;;;;;;4964413;28;20098;-44
2023/08/03 05:19:11;;;;;;;15.00;8.68;;;16.00;99.90;;;;;;4965598;28;20602;-42
2023/08/03 05:21:37;;;;;;;13.35;9.55;;;16.00;99.90;;;;;;4964427;28;20069;-42
2023/08/03 05:24:02;;;;;;;16.48;8.68;;;16.00;99.90;;;;;;4964328;28;20062;-43
2023/08/03 05:26:32;;;;;;;17.52;9.27;;;15.90;99.90;;;;;;4965083;28;20396;-42
2023/08/03 05:28:58;;;;;;;18.83;8.77;;;16.10;99.90;;;;;;4964628;28;20401;-43
2023/08/03 05:31:24;;;;;;;13.27;8.65;;;16.00;99.90;;;;;;4963940;28;20049;-42
2023/08/03 05:33:49;;;;;;;17.00;8.32;;;16.10;99.90;;;;;;4964482;28;20413;-43
2023/08/03 05:36:15;;;;;;;16.13;8.40;;;16.00;99.90;;;;;;4965207;28;20054;-42
2023/08/03 05:38:40;;;;;;;13.77;7.78;;;16.10;99.90;;;;;;4963998;28;20130;-43
2023/08/03 05:41:16;;;;;;;17.52;7.45;;;16.10;99.90;;;;;;4964337;28;20054;-43
2023/08/03 05:43:41;;;;;;;18.17;7.95;;;16.20;99.90;;;;;;4964649;28;20039;-43
2023/08/03 05:46:12;;;;;;;13.38;7.15;;;16.20;99.90;;;;;;4963051;28;20177;-43
2023/08/03 05:48:38;;;;;;;13.80;7.28;;;16.20;99.90;;;;;;4966644;28;20066;-42
2023/08/03 05:51:04;;;;;;;14.40;6.95;;;16.20;99.90;;;;;;4973737;28;20513;-43
2023/08/03 05:53:29;;;;;;;14.25;6.90;;;16.20;99.90;;;;;;4963711;28;20043;-43
2023/08/03 05:55:56;;;;;;;13.75;7.30;;;16.20;99.90;;;;;;4964334;28;20047;-42
2023/08/03 05:58:22;;;;;;;15.30;7.50;;;16.10;99.90;;;;;;4965932;28;20054;-44
2023/08/03 06:00:49;;;;;;;10.38;6.25;;;16.20;99.90;;;;;;4964408;28;20054;-42
2023/08/03 06:03:16;;;;;;;10.90;6.43;;;16.30;99.90;;;;;;4963348;28;20092;-42
2023/08/03 06:05:45;;;;;;;14.18;7.03;;;16.30;99.90;;;;;;4964167;28;20502;-42
2023/08/03 06:08:20;;;;;;;13.13;6.32;;;16.50;99.90;;;;;;4963506;28;20438;-43
2023/08/03 06:10:51;;;;;;;8.80;5.57;;;16.70;99.90;;;;;;4968137;28;20140;-42
2023/08/03 06:13:19;;;;;;;10.70;5.78;;;16.60;99.90;;;;;;4983614;28;20050;-43
2023/08/03 06:15:46;;;;;;;9.93;6.28;;;16.50;99.90;;;;;;4982256;28;20038;-43
2023/08/03 06:18:14;;;;;;;8.98;5.82;;;16.50;99.90;;;;;;4982973;28;20047;-42
2023/08/03 06:20:46;;;;;;;12.25;5.70;;;16.40;99.90;;;;;;4983067;28;20042;-43
2023/08/03 06:23:19;;;;;;;10.77;5.95;;;16.50;99.90;;;;;;4982859;28;20217;-43
2023/08/03 06:25:47;;;;;;;10.55;6.30;;;16.50;99.90;;;;;;4989487;28;20047;-42
2023/08/03 06:28:15;;;;;;;7.65;5.22;;;16.30;99.90;;;;;;4989551;28;20046;-42
2023/08/03 06:30:40;;;;;;;12.88;6.13;;;16.30;99.90;;;;;;4970758;28;20205;-43
2023/08/03 06:33:11;;;;;;;8.45;5.40;;;16.30;99.90;;;;;;4989608;28;20046;-43
2023/08/03 06:35:41;;;;;;;12.13;5.30;;;16.40;99.90;;;;;;4989461;28;20050;-42
2023/08/03 06:38:10;;;;;;;7.93;4.65;;;16.40;99.90;;;;;;4989171;28;20108;-43
2023/08/03 06:40:36;;;;;;;6.05;3.95;;;16.30;99.90;;;;;;4989788;28;20038;-43
2023/08/03 06:43:02;;;;;;;5.47;3.88;;;16.30;99.90;;;;;;4989589;28;20629;-43
2023/08/03 06:45:31;;;;;;;5.10;4.03;;;16.30;99.90;;;;;;4989078;28;20213;-43
2023/08/03 06:47:58;;;;;;;7.68;4.10;;;16.30;99.90;;;;;;4988516;28;20523;-43
2023/08/03 06:50:24;;;;;;;9.00;4.22;;;16.30;99.90;;;;;;4985324;28;20046;-44
2023/08/03 06:52:50;;;;;;;10.32;4.68;;;16.50;99.90;;;;;;4979555;28;20034;-44
2023/08/03 06:55:16;;;;;;;8.25;4.63;;;16.90;99.90;;;;;;4982427;28;20129;-43
2023/08/03 06:57:42;;;;;;;7.80;4.35;;;17.50;99.90;;;;;;4968496;28;20122;-44
2023/08/03 07:00:09;;;;;;;10.57;4.72;;;18.00;99.90;;;;;;4970091;28;20046;-43
2023/08/03 07:02:35;;;;;;;7.28;4.20;;;18.70;99.90;;;;;;4968702;28;20043;-42
2023/08/03 07:05:00;;;;;;;8.57;4.03;;;18.80;99.90;;;;;;4970498;28;20438;-43
2023/08/03 07:07:27;;;;;;;6.65;3.55;;;18.60;99.90;;;;;;4970178;28;20517;-42
2023/08/03 07:09:53;;;;;;;5.85;3.10;;;18.60;99.90;;;;;;4969178;28;20410;-43
2023/08/03 07:12:19;;;;;;;5.28;2.80;;;18.50;99.90;;;;;;4969451;28;20110;-43
2023/08/03 07:14:45;;;;;;;7.57;3.40;;;18.40;99.90;;;;;;4969687;28;20046;-44
2023/08/03 07:17:10;;;;;;;4.93;2.92;;;18.30;99.90;;;;;;4969683;28;20041;-43
2023/08/03 07:19:36;;;;;;;4.70;2.50;;;18.10;99.90;;;;;;4978052;28;20405;-42
2023/08/03 07:22:01;;;;;;;5.00;2.92;;;18.20;99.90;;;;;;4983069;28;20049;-44
2023/08/03 07:24:28;;;;;;;4.65;2.60;;;18.10;99.90;;;;;;4972495;28;20042;-42
2023/08/03 07:26:54;;;;;;;10.85;3.30;;;18.10;99.90;;;;;;4969232;28;20054;-42
2023/08/03 07:29:20;;;;;;;7.82;2.40;;;18.00;99.90;;;;;;4969641;28;20054;-43
2023/08/03 07:31:45;;;;;;;5.22;2.70;;;18.00;99.90;;;;;;4968871;28;20179;-42
2023/08/03 07:34:11;;;;;;;3.47;2.35;;;18.00;99.90;;;;;;4969303;28;20130;-44
2023/08/03 07:36:37;;;;;;;4.18;2.20;;;18.00;99.90;;;;;;4965749;28;20039;-43
2023/08/03 07:39:02;;;;;;;3.70;1.77;;;18.10;99.90;;;;;;4967158;28;20105;-45
2023/08/03 07:41:28;;;;;;;4.57;2.30;;;18.70;99.90;;;;;;4965525;28;20533;-43
2023/08/03 07:43:54;;;;;;;4.10;1.88;;;19.30;99.90;;;;;;4965488;28;20593;-43
2023/08/03 07:46:19;;;;;;;2.83;1.60;;;19.80;99.90;;;;;;4965918;28;20401;-43
2023/08/03 07:48:45;;;;;;;2.03;1.52;;;20.10;99.90;;;;;;4966524;28;20047;-42
2023/08/03 07:51:15;;;;;;;2.92;1.70;;;20.10;99.90;;;;;;4964485;28;20133;-46
2023/08/03 07:53:41;;;;;;;2.20;1.40;;;19.80;99.90;;;;;;4981938;28;20472;-45
2023/08/03 07:56:16;;;;;;;2.78;1.17;;;19.60;99.90;;;;;;4969233;28;20042;-43
2023/08/03 07:58:42;;;;;;;2.20;1.25;;;19.80;99.90;;;;;;4985290;28;20046;-43
2023/08/03 08:01:08;;;;;;;1.50;1.10;;;19.90;99.90;;;;;;4970725;28;20473;-43
2023/08/03 08:03:38;;;;;;;1.10;0.70;;;20.00;99.90;;;;;;4966698;28;20097;-44
2023/08/03 08:06:05;;;;;;;1.75;0.77;;;20.20;99.90;;;;;;4965802;28;20118;-44
2023/08/03 08:08:31;;;;;;;1.60;0.80;;;20.30;99.90;;;;;;4985128;28;20045;-43
2023/08/03 08:10:57;;;;;;;2.10;0.82;;;20.30;99.90;;;;;;4979498;28;20047;-43
2023/08/03 08:13:23;;;;;;;1.17;0.50;;;20.40;99.90;;;;;;4965785;28;20086;-43
2023/08/03 08:15:48;;;;;;;1.40;0.70;;;20.70;99.90;;;;;;4971384;28;20049;-44
2023/08/03 08:18:14;;;;;;;2.00;0.68;;;20.80;99.90;;;;;;4984979;28;20041;-44
2023/08/03 08:20:40;;;;;;;2.75;0.70;;;20.90;99.90;;;;;;4973970;28;20035;-43
2023/08/03 08:23:05;;;;;;;0.85;0.60;;;20.70;99.90;;;;;;4977172;28;20397;-44
2023/08/03 08:25:33;;;;;;;1.15;0.60;;;20.50;99.90;;;;;;4974460;28;20043;-43
2023/08/03 08:27:59;;;;;;;2.30;0.90;;;20.70;99.90;;;;;;4976474;28;20050;-43
2023/08/03 08:30:25;;;;;;;3.08;1.10;;;20.60;99.90;;;;;;4974068;28;20045;-43
2023/08/03 08:32:52;;;;;;;2.63;1.10;;;20.50;99.90;;;;;;4965677;28;20422;-43
2023/08/03 08:35:17;;;;;;;5.10;1.15;;;20.50;99.90;;;;;;4965544;28;20232;-43
2023/08/03 08:37:43;;;;;;;2.20;0.70;;;20.60;99.90;;;;;;4964163;28;20057;-43
2023/08/03 08:40:12;;;;;;;4.60;0.95;;;20.80;99.90;;;;;;4965018;28;20174;-43
2023/08/03 08:42:39;;;;;;;2.97;0.85;;;21.00;99.90;;;;;;4965570;28;20421;-44
2023/08/03 08:45:05;;;;;;;6.47;1.00;;;21.10;99.90;;;;;;4972229;28;20058;-44
2023/08/03 08:47:31;;;;;;;3.42;0.70;;;21.20;99.90;;;;;;4979634;28;20066;-43
2023/08/03 08:49:57;;;;;;;2.88;0.80;;;21.30;99.90;;;;;;4970006;28;20156;-49
2023/08/03 08:52:25;;;;;;;3.15;0.88;;;21.50;99.90;;;;;;4968372;28;20764;-43
2023/08/03 08:54:51;;;;;;;4.25;1.00;;;21.70;99.90;;;;;;4967191;28;20085;-44
2023/08/03 08:57:17;;;;;;;3.33;0.77;;;21.50;99.90;;;;;;4979667;28;20498;-45
2023/08/03 09:00:05;;;;;;;3.33;0.80;;;21.40;99.90;;;;;;4985800;28;20121;-43
2023/08/03 09:02:31;;;;;;;3.55;0.98;;;21.30;99.90;;;;;;4985370;28;20083;-44
2023/08/03 09:04:57;;;;;;;5.63;1.08;;;21.30;99.90;;;;;;4986262;28;20753;-44
2023/08/03 09:07:23;;;;;;;2.67;0.80;;;21.70;99.90;;;;;;4983739;28;20047;-44
2023/08/03 09:09:49;;;;;;;3.95;0.90;;;21.60;99.90;;;;;;4976068;28;20046;-46
2023/08/03 09:12:26;;;;;;;4.57;0.90;;;21.50;99.90;;;;;;4987446;28;20054;-45
2023/08/03 09:14:53;;;;;;;4.43;0.90;;;21.50;99.90;;;;;;4981964;28;20062;-44
2023/08/03 09:17:19;;;;;;;2.65;0.95;;;21.60;99.90;;;;;;4966893;28;20406;-46
2023/08/03 09:19:46;;;;;;;3.53;0.80;;;21.70;99.90;;;;;;4968246;28;20097;-45
2023/08/03 09:22:40;;;;;;;3.22;0.80;;;21.60;99.90;;;;;;4967889;28;20142;-44
2023/08/03 09:25:07;;;;;;;4.78;0.98;;;21.30;99.90;;;;;;4968277;28;20057;-45
2023/08/03 09:27:33;;;;;;;2.58;0.85;;;21.30;99.90;;;;;;4966812;28;20054;-45
2023/08/03 09:30:00;;;;;;;3.17;1.00;;;21.40;99.90;;;;;;4974360;28;20054;-45
2023/08/03 09:32:34;;;;;;;3.67;0.98;;;21.50;99.90;;;;;;4986557;28;20080;-46
2023/08/03 09:35:15;;;;;;;3.25;0.95;;;21.50;99.90;;;;;;4987341;28;20113;-45
2023/08/03 09:37:40;;;;;;;4.05;1.00;;;21.30;99.90;;;;;;4987051;28;20100;-53
2023/08/03 09:40:07;;;;;;;3.83;0.75;;;21.00;99.90;;;;;;4987244;28;20042;-53
2023/08/03 09:42:35;;;;;;;3.92;0.90;;;20.80;99.90;;;;;;4972571;28;20047;-53
2023/08/03 09:45:02;;;;;;;2.50;0.80;;;20.70;99.90;;;;;;4967242;28;20050;-53
2023/08/03 09:47:30;;;;;;;4.03;0.90;;;20.60;99.90;;;;;;4966657;28;20615;-54
2023/08/03 09:49:56;;;;;;;2.88;0.95;;;20.50;99.90;;;;;;4967024;28;20547;-51
2023/08/03 09:52:26;;;;;;;4.95;1.52;;;20.40;99.90;;;;;;4967703;28;20413;-52
2023/08/03 09:55:08;;;;;;;3.40;1.10;;;20.40;99.90;;;;;;4967102;28;20096;-51
2023/08/03 09:57:43;;;;;;;4.07;1.15;;;20.40;99.90;;;;;;4966813;28;20043;-53
2023/08/03 10:00:12;;;;;;;4.93;1.27;;;20.70;99.90;;;;;;4966324;28;20059;-53
2023/08/03 10:02:51;;;;;;;5.43;1.05;;;21.10;99.90;;;;;;4966932;28;20229;-53
2023/08/03 10:05:19;;;;;;;5.22;1.20;;;21.40;99.90;;;;;;4966908;28;20121;-53
2023/08/03 10:08:04;;;;;;;5.57;1.15;;;21.30;99.90;;;;;;4965851;28;20065;-55
2023/08/03 10:10:36;;;;;;;5.25;1.10;;;21.20;99.90;;;;;;4965500;28;20478;-53
2023/08/03 10:13:03;;;;;;;5.95;1.23;;;21.00;99.90;;;;;;4977899;28;20054;-52
2023/08/03 10:15:31;;;;;;;2.90;1.10;;;20.80;99.90;;;;;;4965736;28;20051;-52
2023/08/03 10:17:57;;;;;;;4.78;1.52;;;20.70;99.90;;;;;;4967326;28;20051;-52
2023/08/03 10:20:23;;;;;;;4.32;1.35;;;20.60;99.90;;;;;;4966562;28;20061;-52
2023/08/03 10:23:19;;;;;;;6.72;1.27;;;20.60;99.90;;;;;;4964778;28;20206;-52
2023/08/03 10:25:55;;;;;;;3.88;1.40;;;20.60;99.90;;;;;;4958069;28;20126;-52
2023/08/03 10:28:26;;;;;;;5.28;1.30;;;20.60;99.90;;;;;;4966614;28;20051;-52
2023/08/03 10:31:11;;;;;;;5.22;1.65;;;20.50;99.90;;;;;;4979676;28;20051;-52
2023/08/03 10:33:46;;;;;;;4.70;1.30;;;20.60;99.90;;;;;;4965547;28;20051;-53
2023/08/03 10:36:30;;;;;;;3.67;1.10;;;21.10;99.90;;;;;;4973323;28;20043;-54
2023/08/03 10:38:57;;;;;;;;;;;21.70;99.90;;;;;;4975849;28;20049;-53
2023/08/03 10:41:24;;;;;;;6.97;1.60;;;21.90;99.90;;;;;;4966184;28;20510;-51
2023/08/03 10:44:05;;;;;;;7.57;1.60;;;21.90;99.90;;;;;;4964139;28;20046;-53
2023/08/03 10:46:31;;;;;;;6.32;2.00;;;21.90;99.90;;;;;;4975355;28;20675;-53
2023/08/03 10:48:57;;;;;;;6.03;1.70;;;21.70;99.90;;;;;;4966631;28;20055;-51
2023/08/03 10:51:23;;;;;;;5.88;1.70;;;21.50;99.90;;;;;;4966628;28;20467;-53
2023/08/03 10:53:49;;;;;;;5.45;1.45;;;21.40;99.90;;;;;;4966928;28;20042;-53
2023/08/03 10:56:14;;;;;;;5.72;1.63;;;21.50;99.90;;;;;;4975066;28;20223;-53
2023/08/03 10:58:47;;;;;;;5.50;1.40;;;21.60;99.90;;;;;;4981907;28;20043;-52
2023/08/03 11:01:21;;;;;;;4.88;1.60;;;21.60;99.90;;;;;;4982190;28;20101;-51
2023/08/03 11:03:47;;;;;;;5.90;1.65;;;21.60;99.90;;;;;;4963909;28;20343;-52
2023/08/03 11:06:13;;;;;;;5.72;1.50;;;21.80;99.90;;;;;;4963739;28;20533;-50
2023/08/03 11:08:38;;;;;;;6.18;1.60;;;22.00;99.90;;;;;;4963939;28;20043;-52
2023/08/03 11:11:09;;;;;;;8.98;2.08;;;22.10;99.90;;;;;;4970672;28;20061;-54
2023/08/03 11:13:35;;;;;;;6.45;1.48;;;22.10;99.90;;;;;;4976254;28;20054;-53
2023/08/03 11:16:00;;;;;;;7.28;1.98;;;22.10;99.90;;;;;;4965962;28;20051;-53
2023/08/03 11:18:26;;;;;;;4.68;1.85;;;21.90;99.90;;;;;;4966490;28;20141;-53
2023/08/03 11:20:51;;;;;;;6.93;2.40;;;21.80;99.90;;;;;;4983711;28;20049;-54
2023/08/03 11:23:17;;;;;;;5.35;1.95;;;21.70;99.90;;;;;;4980834;28;20053;-51
2023/08/03 11:25:43;;;;;;;6.35;2.22;;;22.00;99.90;;;;;;4990117;28;20457;-54
2023/08/03 11:28:08;;;;;;;7.47;2.17;;;22.30;99.90;;;;;;4976028;28;20061;-53
2023/08/03 11:30:44;;;;;;;6.13;2.00;;;22.50;99.90;;;;;;4978492;28;20042;-53
2023/08/03 11:33:15;;;;;;;6.05;1.65;;;22.60;99.90;;;;;;4986793;28;20070;-53
2023/08/03 11:35:42;;;;;;;5.45;1.98;;;22.60;99.90;;;;;;4980010;28;20057;-53
2023/08/03 11:38:08;;;;;;;8.15;1.88;;;22.50;99.90;;;;;;4966216;28;20074;-52
2023/08/03 11:40:35;;;;;;;6.72;1.95;;;22.30;99.90;;;;;;4966284;28;20098;-44
2023/08/03 11:43:01;;;;;;;7.30;1.95;;;22.10;99.90;;;;;;4980886;28;20046;-44
2023/08/03 11:45:34;;;;;;;7.45;1.60;;;21.90;99.90;;;;;;4985004;28;20042;-45
2023/08/03 11:47:59;;;;;;;5.43;1.65;;;21.80;99.90;;;;;;4986409;28;20042;-44
2023/08/03 11:50:25;;;;;;;7.07;2.08;;;21.90;99.90;;;;;;4985657;28;20341;-45
2023/08/03 11:53:00;;;;;;;8.38;2.08;;;22.20;99.90;;;;;;4985883;28;20559;-45
2023/08/03 11:55:32;;;;;;;10.35;1.80;;;22.60;99.90;;;;;;4980462;28;20053;-44
2023/08/03 11:58:08;;;;;;;6.80;1.88;;;22.70;99.90;;;;;;4966409;28;20043;-45
2023/08/03 12:00:34;;;;;;;7.07;2.00;;;22.80;99.90;;;;;;4964772;28;20093;-46
2023/08/03 12:03:00;;;;;;;5.43;1.48;;;22.70;99.90;;;;;;4966347;28;20049;-43
2023/08/03 12:05:26;;;;;;;6.28;2.28;;;22.50;99.90;;;;;;4973023;28;20038;-44
2023/08/03 12:07:55;;;;;;;7.50;1.77;;;22.50;99.90;;;;;;4985932;28;20034;-45
2023/08/03 12:10:21;;;;;;;5.35;1.50;;;22.60;99.90;;;;;;4985510;28;20039;-44
2023/08/03 12:12:46;;;;;;;4.90;1.70;;;22.70;99.90;;;;;;4984803;28;20101;-46
2023/08/03 12:15:12;;;;;;;6.13;1.42;;;22.70;99.90;;;;;;4984743;28;20058;-44
2023/08/03 12:17:38;;;;;;;6.13;1.38;;;22.80;99.90;;;;;;4984302;28;20108;-45
2023/08/03 12:20:05;;;;;;;2.78;0.95;;;23.10;99.90;;;;;;4984772;28;20462;-45
2023/08/03 12:22:32;;;;;;;4.78;1.17;;;22.90;99.90;;;;;;4984786;28;20125;-44
2023/08/03 12:24:58;;;;;;;3.10;0.98;;;22.60;99.90;;;;;;4983480;28;20691;-44
2023/08/03 12:27:23;;;;;;;4.90;1.33;;;22.30;99.90;;;;;;4984985;28;20125;-47
2023/08/03 12:29:49;;;;;;;6.20;1.42;;;22.10;99.90;;;;;;4984612;28;20058;-47
2023/08/03 12:32:14;;;;;;;5.15;1.17;;;22.00;99.90;;;;;;4983982;28;20069;-44
2023/08/03 12:34:40;;;;;;;3.95;0.90;;;22.10;99.90;;;;;;4985291;28;20046;-45
2023/08/03 12:37:06;;;;;;;4.50;1.00;;;22.20;99.90;;;;;;4985370;28;20533;-45
2023/08/03 12:39:31;;;;;;;3.13;0.93;;;22.50;99.90;;;;;;4983629;28;20655;-46
2023/08/03 12:41:57;;;;;;;2.28;0.70;;;22.80;99.90;;;;;;4984569;28;20535;-45
2023/08/03 12:44:24;;;;;;;2.13;0.70;;;22.90;99.90;;;;;;4984946;28;20046;-45